Flight Track Log - Related Links

Times and Time Zones

All times are in EDT time to prevent confusion due to time zone crossing. See the SKW5631 flight status page for this flight to view local times or setup timezone preferences in your user account.

Time Position Orientation Groundspeed Altitude Reporting Facility
EDT Latitude Longitude Course Direction KTS MPH feet Rate Location/Type
Fri 10:14:34 PM 37.6333 -122.3667 135° Southeast 143 165 700  Level Northern TRACON
Fri 10:15:34 PM 37.6833 -122.3667 360° North 187 215 2,500 1,750 Climbing Northern TRACON
Fri 10:16:34 PM 37.6667 -122.4500 256° West 270 311 4,200 2,500 Climbing Northern TRACON
Fri 10:17:00 PM 37.3173 -121.9994 135° Southeast  Level Estimated
Fri 10:17:34 PM 37.6333 -122.5167 238° Southwest 283 326 7,500  Level Northern TRACON
Fri 10:18:00 PM 37.2164 -121.8748 133° Southeast  Level Estimated
Fri 10:18:34 PM 37.5500 -122.5167 180° South 288 331 9,600  Level Northern TRACON
Fri 10:19:00 PM 37.1154 -121.7505 135° Southeast  Level Estimated
Fri 10:19:28 PM 37.5000 -122.4500 133° Southeast 300 345 11,400  Level Northern TRACON
Fri 10:19:59 PM 37.4669 -122.4303 155° Southeast 301 346 12,300 1,565 Climbing Oakland Center
Fri 10:21:00 PM 37.4022 -122.3558 138° Southeast 310 357 13,800 1,623 Climbing Oakland Center
Fri 10:22:01 PM 37.3314 -122.2781 139° Southeast 332 382 15,600 1,525 Climbing Oakland Center
Fri 10:23:02 PM 37.2600 -122.1972 138° Southeast 344 396 16,900 1,463 Climbing Oakland Center
Fri 10:24:04 PM 37.1861 -122.1164 139° Southeast 351 404 18,600 1,512 Climbing Oakland Center
Fri 10:25:05 PM 37.0964 -122.0153 138° Southeast 361 415 20,000 1,230 Climbing Oakland Center
Fri 10:26:06 PM 37.0189 -121.9272 138° Southeast 376 433 21,100 1,033 Climbing Oakland Center
Fri 10:27:07 PM 36.9383 -121.8392 139° Southeast 384 442 22,100 984 Climbing Oakland Center
Fri 10:28:08 PM 36.8539 -121.7528 141° Southeast 390 449 23,100 885 Climbing Oakland Center
Fri 10:29:09 PM 36.7764 -121.6703 140° Southeast 399 459 23,900 836 Climbing Oakland Center
Fri 10:30:10 PM 36.6939 -121.5758 137° Southeast 402 463 24,800 934 Climbing Oakland Center
Fri 10:31:11 PM 36.5917 -121.4636 139° Southeast 410 472 25,800 829 Climbing Oakland Center
Fri 10:32:13 PM 36.5056 -121.3700 139° Southeast 411 473 26,500 585 Climbing Oakland Center
Fri 10:33:14 PM 36.4175 -121.2747 139° Southeast 420 483 27,000 246 Climbing Oakland Center
Fri 10:34:15 PM 36.3267 -121.1769 139° Southeast 433 498 27,000  Level Oakland Center
Fri 10:35:16 PM 36.2350 -121.0769 139° Southeast 439 505 27,000  Level Oakland Center
Fri 10:36:17 PM 36.1425 -120.9778 139° Southeast 441 507 27,000  Level Oakland Center
Fri 10:37:19 PM 36.0514 -120.8783 139° Southeast 437 503 27,000  Level Oakland Center
Fri 10:38:20 PM 35.9611 -120.7828 139° Southeast 429 494 27,000  Level Oakland Center
Fri 10:39:21 PM 35.8736 -120.6883 139° Southeast 419 482 27,000  Level Oakland Center
Fri 10:40:22 PM 35.7869 -120.5964 139° Southeast 414 476 27,000  Level Oakland Center
Fri 10:41:23 PM 35.6986 -120.5022 139° Southeast 418 481 27,000  Level Oakland Center
Fri 10:42:24 PM 35.5925 -120.3900 139° Southeast 418 481 27,000  Level Oakland Center
Fri 10:43:26 PM 35.5022 -120.2942 139° Southeast 422 486 27,000  Level Oakland Center
Fri 10:44:30 PM 35.4161 -120.2042 140° Southeast 430 495 27,000  Level Los Center
Fri 10:45:31 PM 35.3172 -120.0983 139° Southeast 429 494 27,000  Level Los Center
Fri 10:46:33 PM 35.2264 -120.0042 140° Southeast 426 490 27,000  Level Los Center
Fri 10:47:35 PM 35.1353 -119.9100 140° Southeast 428 493 27,000  Level Los Center
Fri 10:48:36 PM 35.0522 -119.8103 135° Southeast 420 483 27,000 -488 Level Los Center
Fri 10:49:38 PM 34.9753 -119.7053 132° Southeast 416 479 26,000 -1,597 Descending Los Center
Fri 10:50:40 PM 34.8981 -119.6022 132° Southeast 413 475 23,700 -2,488 Descending Los Center
Fri 10:51:41 PM 34.8069 -119.4794 132° Southeast 407 468 20,900 -2,585 Descending Los Center
Fri 10:52:43 PM 34.7344 -119.3811 132° Southeast 393 452 18,400 -2,419 Descending Los Center
Fri 10:53:45 PM 34.6633 -119.2869 133° Southeast 381 438 15,900 -2,488 Descending Los Center
Fri 10:54:46 PM 34.5889 -119.1897 133° Southeast 367 422 13,300 -2,146 Descending Los Center
Fri 10:55:48 PM 34.5239 -119.1056 133° Southeast 347 399 11,500 -1,113 Descending Los Center
Fri 10:56:50 PM 34.4672 -119.0294 132° Southeast 298 343 11,000 -732 Descending Los Center
Fri 10:57:51 PM 34.4128 -118.9533 131° Southeast 295 339 10,000 -1,073 Descending Los Center
Fri 10:58:53 PM 34.3681 -118.8775 126° Southeast 273 314 8,800 -1,306 Descending Los Center
Fri 10:59:55 PM 34.3217 -118.8089 129° Southeast 264 304 7,300 -1,366 Descending Los Center
Fri 11:00:56 PM 34.2814 -118.7428 126° Southeast 248 285 6,000 -829 Descending Los Center
Fri 11:01:58 PM 34.2339 -118.6672 127° Southeast 237 273 5,600 -444 Descending Los Center
Fri 11:02:44 PM 34.2000 -118.6167 129° Southeast 196 226 5,200 -857 Descending Southern TRACON
Fri 11:03:43 PM 34.2000 -118.5667 90° East 162 186 4,100 -960 Descending Southern TRACON
Fri 11:04:49 PM 34.2000 -118.5167 90° East 135 155 3,200 -714 Descending Southern TRACON
Fri 11:05:49 PM 34.2000 -118.4833 90° East 120 138 2,600 -694 Descending Southern TRACON
Fri 11:06:50 PM 34.2000 -118.4333 90° East 126 145 1,800 -730 Descending Southern TRACON
Fri 11:07:44 PM 34.2000 -118.4000 90° East 126 145 1,200 -429 Descending Southern TRACON
Fri 11:09:10 PM 34.1992 -118.3444 91° East 128 147 800 -279 Descending Los Center

Login

Don't have an account? Register now (free) for customized features, flight alerts, and more!